Time;durP1;ratioP1;P1;durP2;ratioP2;P2;SDS_P1;SDS_P2;PMS_P1;PMS_P2;Temp;Humidity;BMP_temperature;BMP_pressure;BME280_temperature;BME280_humidity;BME280_pressure;Samples;Min_cycle;Max_cycle;Signal;HPM_P1;HPM_P2
2020/11/18 00:02:02;;;;;;;2.7;1.2;;;;;;;;;;;;;
2020/11/18 00:04:29;;;;;;;3.4;1.9;;;;;;;;;;;;;
2020/11/18 00:06:54;;;;;;;3.1;1.2;;;;;;;;;;;;;
2020/11/18 00:09:19;;;;;;;1.6;1.3;;;;;;;;;;;;;
2020/11/18 00:11:45;;;;;;;2.2;1.5;;;;;;;;;;;;;
2020/11/18 00:14:11;;;;;;;3.5;2;;;;;;;;;;;;;
2020/11/18 00:16:36;;;;;;;4;1.6;;;;;;;;;;;;;
2020/11/18 00:19:03;;;;;;;2.4;1.8;;;;;;;;;;;;;
2020/11/18 00:21:28;;;;;;;5.2;1.8;;;;;;;;;;;;;
2020/11/18 00:23:55;;;;;;;3.9;1.8;;;;;;;;;;;;;
2020/11/18 00:26:21;;;;;;;3.7;1.9;;;;;;;;;;;;;
2020/11/18 00:28:46;;;;;;;1.2;1;;;;;;;;;;;;;
2020/11/18 00:31:11;;;;;;;2.2;1.2;;;;;;;;;;;;;
2020/11/18 00:33:37;;;;;;;2.3;1.3;;;;;;;;;;;;;
2020/11/18 00:36:02;;;;;;;1.5;0.8;;;;;;;;;;;;;
2020/11/18 00:38:29;;;;;;;1.2;0.8;;;;;;;;;;;;;
2020/11/18 00:40:57;;;;;;;2.9;1.1;;;;;;;;;;;;;
2020/11/18 00:43:23;;;;;;;1;0.9;;;;;;;;;;;;;
2020/11/18 00:45:47;;;;;;;3.2;1.7;;;;;;;;;;;;;
2020/11/18 00:48:13;;;;;;;1;0.9;;;;;;;;;;;;;
2020/11/18 00:50:38;;;;;;;1.8;1.1;;;;;;;;;;;;;
2020/11/18 00:53:04;;;;;;;1.2;1;;;;;;;;;;;;;
2020/11/18 00:55:29;;;;;;;1.5;1;;;;;;;;;;;;;
2020/11/18 00:57:55;;;;;;;1.2;0.7;;;;;;;;;;;;;
2020/11/18 01:00:24;;;;;;;2;1.3;;;;;;;;;;;;;
2020/11/18 01:02:50;;;;;;;2.3;1.3;;;;;;;;;;;;;
2020/11/18 01:05:15;;;;;;;1.9;1;;;;;;;;;;;;;
2020/11/18 01:07:41;;;;;;;2.9;1;;;;;;;;;;;;;
2020/11/18 01:10:06;;;;;;;3.5;1.8;;;;;;;;;;;;;
2020/11/18 01:12:31;;;;;;;3;1.3;;;;;;;;;;;;;
2020/11/18 01:14:56;;;;;;;1.5;1.1;;;;;;;;;;;;;
2020/11/18 01:17:22;;;;;;;1.4;1.1;;;;;;;;;;;;;
2020/11/18 01:19:48;;;;;;;1.4;1.2;;;;;;;;;;;;;
2020/11/18 01:22:13;;;;;;;2.6;1.1;;;;;;;;;;;;;
2020/11/18 01:24:38;;;;;;;2.4;1.2;;;;;;;;;;;;;
2020/11/18 01:27:04;;;;;;;1.5;1.2;;;;;;;;;;;;;
2020/11/18 01:29:29;;;;;;;1.4;1.2;;;;;;;;;;;;;
2020/11/18 01:31:55;;;;;;;1.8;1.2;;;;;;;;;;;;;
2020/11/18 01:34:21;;;;;;;3.6;1.8;;;;;;;;;;;;;
2020/11/18 01:36:47;;;;;;;5.1;1.5;;;;;;;;;;;;;
2020/11/18 01:39:12;;;;;;;1.1;0.5;;;;;;;;;;;;;
2020/11/18 01:41:37;;;;;;;0.8;0.8;;;;;;;;;;;;;
2020/11/18 01:44:03;;;;;;;1.9;1.2;;;;;;;;;;;;;
2020/11/18 01:46:29;;;;;;;0.7;0.6;;;;;;;;;;;;;
2020/11/18 01:48:54;;;;;;;1.6;0.9;;;;;;;;;;;;;
2020/11/18 01:51:19;;;;;;;0.7;0.7;;;;;;;;;;;;;
2020/11/18 01:53:44;;;;;;;1.2;1;;;;;;;;;;;;;
2020/11/18 01:56:09;;;;;;;0.4;0.4;;;;;;;;;;;;;
2020/11/18 01:58:35;;;;;;;1.7;0.6;;;;;;;;;;;;;
2020/11/18 02:01:00;;;;;;;1;0.9;;;;;;;;;;;;;
2020/11/18 02:03:27;;;;;;;3.9;0.8;;;;;;;;;;;;;
2020/11/18 02:05:52;;;;;;;0.6;0.6;;;;;;;;;;;;;
2020/11/18 02:08:17;;;;;;;1.4;0.9;;;;;;;;;;;;;
2020/11/18 02:10:43;;;;;;;0.9;0.8;;;;;;;;;;;;;
2020/11/18 02:13:08;;;;;;;1.9;0.8;;;;;;;;;;;;;
2020/11/18 02:15:33;;;;;;;5.4;1.3;;;;;;;;;;;;;
2020/11/18 02:17:58;;;;;;;3.3;1.1;;;;;;;;;;;;;
2020/11/18 02:20:24;;;;;;;0.8;0.8;;;;;;;;;;;;;
2020/11/18 02:22:49;;;;;;;1;0.6;;;;;;;;;;;;;
2020/11/18 02:25:14;;;;;;;0.9;0.7;;;;;;;;;;;;;
2020/11/18 02:27:39;;;;;;;0.8;0.7;;;;;;;;;;;;;
2020/11/18 02:30:04;;;;;;;0.9;0.7;;;;;;;;;;;;;
2020/11/18 02:32:29;;;;;;;0.6;0.6;;;;;;;;;;;;;
2020/11/18 02:34:55;;;;;;;1.5;0.7;;;;;;;;;;;;;
2020/11/18 02:37:21;;;;;;;4.4;0.7;;;;;;;;;;;;;
2020/11/18 02:39:47;;;;;;;0.4;0.4;;;;;;;;;;;;;
2020/11/18 02:42:12;;;;;;;1.1;0.7;;;;;;;;;;;;;
2020/11/18 02:44:38;;;;;;;0.5;0.5;;;;;;;;;;;;;
2020/11/18 02:47:04;;;;;;;0.8;0.6;;;;;;;;;;;;;
2020/11/18 02:49:30;;;;;;;0.7;0.7;;;;;;;;;;;;;
2020/11/18 02:51:55;;;;;;;0.7;0.4;;;;;;;;;;;;;
2020/11/18 02:54:22;;;;;;;1.2;1;;;;;;;;;;;;;
2020/11/18 02:56:47;;;;;;;1;0.7;;;;;;;;;;;;;
2020/11/18 02:59:13;;;;;;;3.2;0.7;;;;;;;;;;;;;
2020/11/18 03:01:38;;;;;;;1;0.6;;;;;;;;;;;;;
2020/11/18 03:04:05;;;;;;;0.6;0.6;;;;;;;;;;;;;
2020/11/18 03:06:30;;;;;;;5.8;2.5;;;;;;;;;;;;;
2020/11/18 03:08:55;;;;;;;3.6;2.8;;;;;;;;;;;;;
2020/11/18 03:11:21;;;;;;;4.5;2.5;;;;;;;;;;;;;
2020/11/18 03:13:46;;;;;;;2.4;1.8;;;;;;;;;;;;;
2020/11/18 03:16:12;;;;;;;1.7;1.1;;;;;;;;;;;;;
2020/11/18 03:18:38;;;;;;;1;0.8;;;;;;;;;;;;;
2020/11/18 03:21:03;;;;;;;1.1;0.9;;;;;;;;;;;;;
2020/11/18 03:23:29;;;;;;;0.6;0.6;;;;;;;;;;;;;
2020/11/18 03:25:55;;;;;;;5.5;0.9;;;;;;;;;;;;;
2020/11/18 03:28:20;;;;;;;0.8;0.8;;;;;;;;;;;;;
2020/11/18 03:30:46;;;;;;;4.1;1.2;;;;;;;;;;;;;
2020/11/18 03:33:11;;;;;;;3.1;0.5;;;;;;;;;;;;;
2020/11/18 03:35:36;;;;;;;0.5;0.5;;;;;;;;;;;;;
2020/11/18 03:38:01;;;;;;;0.5;0.5;;;;;;;;;;;;;
2020/11/18 03:40:26;;;;;;;1.7;0.9;;;;;;;;;;;;;
2020/11/18 03:42:51;;;;;;;1.1;0.7;;;;;;;;;;;;;
2020/11/18 03:45:17;;;;;;;0.6;0.6;;;;;;;;;;;;;
2020/11/18 03:47:43;;;;;;;1;0.6;;;;;;;;;;;;;
2020/11/18 03:50:09;;;;;;;1.1;0.9;;;;;;;;;;;;;
2020/11/18 03:52:34;;;;;;;1.4;0.5;;;;;;;;;;;;;
2020/11/18 03:55:00;;;;;;;4.7;0.6;;;;;;;;;;;;;
2020/11/18 03:57:25;;;;;;;1.6;0.7;;;;;;;;;;;;;
2020/11/18 03:59:50;;;;;;;0.5;0.5;;;;;;;;;;;;;
2020/11/18 04:02:30;;;;;;;0.4;0.4;;;;;;;2.76;87.45605;948.09;;;;
2020/11/18 04:04:56;;;;;;;0.8;0.7;;;;;;;2.79;87.10254;948.1831;;;;
2020/11/18 04:07:22;;;;;;;1.3;0.8;;;;;;;2.67;87.65039;948.1269;;;;
2020/11/18 04:09:48;;;;;;;0.7;0.7;;;;;;;2.87;86.93066;948.1643;;;;
2020/11/18 04:12:13;;;;;;;1.2;0.9;;;;;;;2.88;86.7959;948.2092;;;;
2020/11/18 04:14:40;;;;;;;4.3;1.7;;;;;;;2.91;86.72461;948.1939;;;;
2020/11/18 04:17:05;;;;;;;5.5;2;;;;;;;2.9;86.81055;948.1295;;;;
2020/11/18 04:19:32;;;;;;;2.6;1.4;;;;;;;2.85;86.83301;948.0078;;;;
2020/11/18 04:21:57;;;;;;;0.8;0.8;;;;;;;2.86;86.95996;948.0455;;;;
2020/11/18 04:24:23;;;;;;;2.8;0.9;;;;;;;2.79;87.25977;948.0275;;;;
2020/11/18 04:26:48;;;;;;;2.3;1.6;;;;;;;2.77;87.32324;948.0248;;;;
2020/11/18 04:29:15;;;;;;;1.9;1.4;;;;;;;2.72;87.50293;947.9777;;;;
2020/11/18 04:31:40;;;;;;;0.6;0.6;;;;;;;2.72;87.33594;948.034;;;;
2020/11/18 04:34:06;;;;;;;2.7;1.2;;;;;;;2.68;87.42773;947.9984;;;;
2020/11/18 04:36:31;;;;;;;1.5;1.3;;;;;;;2.66;87.45801;947.9785;;;;
2020/11/18 04:38:57;;;;;;;1.2;1.1;;;;;;;2.6;87.84863;947.9371;;;;
2020/11/18 04:41:23;;;;;;;1.8;1.5;;;;;;;2.6;87.92871;947.8921;;;;
2020/11/18 04:43:49;;;;;;;2.8;1.7;;;;;;;2.68;87.70801;947.9127;;;;
2020/11/18 04:46:14;;;;;;;1.3;1;;;;;;;2.68;87.4502;947.8843;;;;
2020/11/18 04:48:40;;;;;;;3.9;1.3;;;;;;;2.79;87.14746;947.8825;;;;
2020/11/18 04:51:06;;;;;;;2.7;1.8;;;;;;;2.81;86.94043;947.9153;;;;
2020/11/18 04:53:31;;;;;;;3.7;1.7;;;;;;;2.81;86.91797;947.9028;;;;
2020/11/18 04:55:56;;;;;;;1.7;1;;;;;;;2.83;86.6748;947.8702;;;;
2020/11/18 04:58:22;;;;;;;1.2;1.1;;;;;;;2.77;86.78516;947.932;;;;
2020/11/18 05:00:50;;;;;;;7.2;1.4;;;;;;;2.77;86.72852;947.9261;;;;
2020/11/18 05:03:15;;;;;;;3;1.6;;;;;;;2.77;86.65039;947.9163;;;;
2020/11/18 05:05:42;;;;;;;1.7;1;;;;;;;2.64;87.18457;947.9494;;;;
2020/11/18 05:08:07;;;;;;;1.8;1;;;;;;;2.63;87.37207;947.8738;;;;
2020/11/18 05:10:32;;;;;;;1.5;1.3;;;;;;;2.64;87.30859;948.0019;;;;
2020/11/18 05:12:58;;;;;;;2.7;1.6;;;;;;;2.62;87.50488;948.0193;;;;
2020/11/18 05:15:23;;;;;;;1.7;1.3;;;;;;;2.67;87.15723;947.9995;;;;
2020/11/18 05:17:48;;;;;;;2.8;1.5;;;;;;;2.67;87.17969;948.0334;;;;
2020/11/18 05:20:29;;;;;;;5;1.3;;;;;;;2.64;87.22852;948.0676;;;;
2020/11/18 05:22:52;;;;;;;2.3;1.4;;;;;;;2.6;87.54785;948.1248;;;;
2020/11/18 05:25:42;;;;;;;2.1;1.7;;;;;;;2.7;87.3418;948.1741;;;;
2020/11/18 05:27:58;;;;;;;4.2;1.5;;;;;;;2.81;86.92871;948.1758;;;;
2020/11/18 05:30:29;;;;;;;3.7;1.7;;;;;;;2.84;86.67676;948.1913;;;;
2020/11/18 05:33:01;;;;;;;1.8;1.3;;;;;;;2.78;86.87695;948.2097;;;;
2020/11/18 05:35:45;;;;;;;6.9;2;;;;;;;2.75;86.99414;948.2326;;;;
2020/11/18 05:38:00;;;;;;;2.8;1.8;;;;;;;2.69;87.18457;948.2761;;;;
2020/11/18 05:40:31;;;;;;;2.4;1.6;;;;;;;2.85;86.71387;948.256;;;;
2020/11/18 05:43:01;;;;;;;2.7;1.8;;;;;;;2.84;86.53027;948.2684;;;;
2020/11/18 05:45:30;;;;;;;3.3;1.5;;;;;;;2.78;86.68555;948.2475;;;;
2020/11/18 05:47:54;;;;;;;1.7;1.2;;;;;;;2.73;87.03516;948.3356;;;;
2020/11/18 05:50:21;;;;;;;1.3;1;;;;;;;2.74;87.00391;948.3415;;;;
2020/11/18 05:52:52;;;;;;;3.4;1.3;;;;;;;2.79;86.83301;948.3016;;;;
2020/11/18 05:55:18;;;;;;;1.4;1;;;;;;;2.95;86.08105;948.2684;;;;
2020/11/18 05:57:43;;;;;;;1.7;1.3;;;;;;;2.98;86.0332;948.31;;;;
2020/11/18 06:00:08;;;;;;;2.4;1.2;;;;;;;3.17;85.3418;948.2703;;;;
2020/11/18 06:02:33;;;;;;;7.9;1.9;;;;;;;3.17;85.02734;948.3229;;;;
2020/11/18 06:04:59;;;;;;;12.3;3.2;;;;;;;2.96;85.93945;948.3137;;;;
2020/11/18 06:07:25;;;;;;;3.7;1.9;;;;;;;2.92;86.14355;948.3083;;;;
2020/11/18 06:09:49;;;;;;;1.3;1;;;;;;;2.95;85.79004;948.3376;;;;
2020/11/18 06:12:15;;;;;;;2.6;1.7;;;;;;;2.94;85.75391;948.3918;;;;
2020/11/18 06:14:40;;;;;;;6;1.7;;;;;;;2.9;85.76758;948.4095;;;;
2020/11/18 06:17:08;;;;;;;3.5;2.1;;;;;;;2.87;85.81836;948.4009;;;;
2020/11/18 06:19:33;;;;;;;6.6;2.5;;;;;;;2.81;85.96387;948.3237;;;;
2020/11/18 06:21:58;;;;;;;5.8;2.6;;;;;;;2.72;86.72949;948.2719;;;;
2020/11/18 06:24:23;;;;;;;1.8;1.2;;;;;;;2.67;87.14551;948.3124;;;;
2020/11/18 06:26:49;;;;;;;3;1.6;;;;;;;2.65;87.4541;948.367;;;;
2020/11/18 06:29:14;;;;;;;1.4;1.3;;;;;;;2.67;87.44824;948.3408;;;;
2020/11/18 06:31:40;;;;;;;1.4;1;;;;;;;2.69;87.40723;948.407;;;;
2020/11/18 06:34:07;;;;;;;2.1;1.3;;;;;;;2.69;87.51953;948.3937;;;;
2020/11/18 06:36:32;;;;;;;3.1;1.9;;;;;;;2.71;87.34375;948.4442;;;;
2020/11/18 06:38:59;;;;;;;2.3;1.7;;;;;;;2.78;87.05762;948.3956;;;;
2020/11/18 06:41:24;;;;;;;1.2;1.1;;;;;;;2.78;87.06934;948.4459;;;;
2020/11/18 06:43:52;;;;;;;2.8;1.7;;;;;;;2.82;86.88379;948.4891;;;;
2020/11/18 06:46:16;;;;;;;2.3;1.4;;;;;;;2.85;86.50977;948.4713;;;;
2020/11/18 06:48:43;;;;;;;1.8;1.3;;;;;;;2.84;86.54199;948.448;;;;
2020/11/18 06:51:08;;;;;;;2.4;0.8;;;;;;;2.95;87.59375;948.4167;;;;
2020/11/18 06:53:36;;;;;;;1.1;1;;;;;;;3;86.81055;948.3973;;;;
2020/11/18 06:56:01;;;;;;;4.1;1.7;;;;;;;3.11;85.89941;948.4059;;;;
2020/11/18 06:58:31;;;;;;;2.5;1.2;;;;;;;2.96;85.86035;948.483;;;;
2020/11/18 07:00:59;;;;;;;6.2;1.5;;;;;;;2.95;86.25;948.4836;;;;
2020/11/18 07:03:27;;;;;;;2.4;1.4;;;;;;;3;86.16016;948.4905;;;;
2020/11/18 07:05:52;;;;;;;1.7;1.3;;;;;;;3.01;86.35449;948.5316;;;;
2020/11/18 07:08:19;;;;;;;5.7;1.7;;;;;;;3.17;86.28418;948.5101;;;;
2020/11/18 07:10:44;;;;;;;3;1.4;;;;;;;3.51;84.97266;948.4872;;;;
2020/11/18 07:13:09;;;;;;;8.7;3.9;;;;;;;3.92;82.83887;948.4236;;;;
2020/11/18 07:15:54;;;;;;;12.5;5.8;;;;;;;4.13;82.00195;948.5012;;;;
2020/11/18 07:18:16;;;;;;;12.9;2.9;;;;;;;4.54;80.61621;948.4116;;;;
2020/11/18 07:20:43;;;;;;;5;2.5;;;;;;;4.99;81.49023;948.4604;;;;
2020/11/18 07:23:09;;;;;;;3.3;1.8;;;;;;;5.49;77.79395;948.4929;;;;
2020/11/18 07:25:39;;;;;;;3.6;1.3;;;;;;;5.93;75.21973;948.3856;;;;
2020/11/18 07:28:04;;;;;;;3.1;2.1;;;;;;;6.13;74.03418;948.4364;;;;
2020/11/18 07:30:30;;;;;;;4.6;2.2;;;;;;;6.67;71.49121;948.4692;;;;
2020/11/18 07:32:56;;;;;;;2.6;1.9;;;;;;;7.01;69.80469;948.4295;;;;
2020/11/18 07:35:21;;;;;;;1.9;1.6;;;;;;;7.35;68.44238;948.4476;;;;
2020/11/18 07:37:46;;;;;;;4.2;1.8;;;;;;;7.74;67.37012;948.4372;;;;
2020/11/18 07:40:14;;;;;;;2.4;1.2;;;;;;;8.65;63.97754;948.4189;;;;
2020/11/18 07:42:39;;;;;;;5.2;1.6;;;;;;;9.55;60.8418;948.2907;;;;
2020/11/18 07:45:12;;;;;;;4.1;1.9;;;;;;;10.45;57.11133;948.3173;;;;
2020/11/18 07:47:37;;;;;;;3.6;1;;;;;;;11.06;55.63672;948.1976;;;;
2020/11/18 07:50:02;;;;;;;6.6;1.8;;;;;;;10.85;54.70605;948.2919;;;;
2020/11/18 07:52:30;;;;;;;4;2.1;;;;;;;11.4;53.59863;948.2991;;;;
2020/11/18 07:54:55;;;;;;;3.4;1.6;;;;;;;11.39;53.18555;948.2382;;;;
2020/11/18 07:57:20;;;;;;;5.9;1.9;;;;;;;11.72;52.42383;948.1461;;;;
2020/11/18 07:59:45;;;;;;;2.4;1.6;;;;;;;12.03;51.67188;948.207;;;;
2020/11/18 08:02:14;;;;;;;2.1;1.2;;;;;;;12.62;49.96289;948.1331;;;;
2020/11/18 08:04:39;;;;;;;1.8;0.8;;;;;;;13.35;48.16309;948.0789;;;;
2020/11/18 08:07:04;;;;;;;0.4;0.4;;;;;;;13.76;46.71191;947.9978;;;;
2020/11/18 08:09:35;;;;;;;0.9;0.6;;;;;;;14.09;45.6543;947.9992;;;;
2020/11/18 08:12:00;;;;;;;1.7;1.3;;;;;;;12.43;50.33008;948.036;;;;
2020/11/18 08:14:25;;;;;;;3.4;1.9;;;;;;;12.6;50.46484;948.0095;;;;
2020/11/18 08:16:50;;;;;;;2.2;1.3;;;;;;;12.06;50.87305;948.0653;;;;
2020/11/18 08:19:16;;;;;;;2.3;0.8;;;;;;;11.83;51.14355;948.0278;;;;
2020/11/18 08:21:41;;;;;;;1.7;0.8;;;;;;;12.66;49.85352;947.9797;;;;
2020/11/18 08:24:08;;;;;;;1.1;0.9;;;;;;;13.29;47.86816;947.9197;;;;
2020/11/18 08:26:33;;;;;;;1.8;1.1;;;;;;;13.46;47.28906;947.9584;;;;
2020/11/18 08:29:00;;;;;;;5.8;1.8;;;;;;;12.95;48.58887;947.8959;;;;
2020/11/18 08:31:25;;;;;;;0.6;0.4;;;;;;;12.63;49.82715;947.877;;;;
2020/11/18 08:33:55;;;;;;;2.7;0.8;;;;;;;12.92;49.69922;947.73;;;;
2020/11/18 08:36:22;;;;;;;1.7;0.9;;;;;;;13;49.73145;947.7631;;;;
2020/11/18 08:38:47;;;;;;;4.6;0.9;;;;;;;12.57;50.33691;947.7294;;;;
2020/11/18 08:41:15;;;;;;;1.7;0.8;;;;;;;11.56;53.8916;947.7396;;;;
2020/11/18 08:43:40;;;;;;;8.2;1.2;;;;;;;10.65;57.33203;947.7053;;;;
2020/11/18 08:46:06;;;;;;;0.9;0.7;;;;;;;10;59.85645;947.7169;;;;
2020/11/18 08:48:31;;;;;;;1.3;0.9;;;;;;;9.41;62.4502;947.6429;;;;
2020/11/18 08:50:56;;;;;;;1.4;0.9;;;;;;;9;63.05176;947.6877;;;;
2020/11/18 08:53:21;;;;;;;3.2;1.2;;;;;;;8.82;64.70898;947.6577;;;;
2020/11/18 08:55:48;;;;;;;0.7;0.7;;;;;;;8.53;65.25586;947.616;;;;
2020/11/18 08:58:13;;;;;;;0.6;0.6;;;;;;;8.43;65.11426;947.5722;;;;
2020/11/18 09:00:42;;;;;;;0.7;0.7;;;;;;;8.5;65.52246;947.6707;;;;
2020/11/18 09:03:10;;;;;;;6.1;1.2;;;;;;;8.5;64.64941;947.5517;;;;
2020/11/18 09:05:35;;;;;;;2.9;1.1;;;;;;;8.47;65.8252;947.5372;;;;
2020/11/18 09:08:00;;;;;;;1.9;1.1;;;;;;;8.57;66.18164;947.5282;;;;
2020/11/18 09:10:25;;;;;;;1.8;1.3;;;;;;;8.71;65.13477;947.4894;;;;
2020/11/18 09:12:52;;;;;;;2.5;1.4;;;;;;;8.87;66.05664;947.4874;;;;
2020/11/18 09:15:17;;;;;;;1.7;1;;;;;;;8.98;65.47168;947.4749;;;;
2020/11/18 09:17:44;;;;;;;1.8;0.8;;;;;;;9.15;65.34961;947.3856;;;;
2020/11/18 09:20:13;;;;;;;9.4;0.5;;;;;;;9.33;62.99609;947.4372;;;;
2020/11/18 09:22:41;;;;;;;0.4;0.3;;;;;;;9.6;60.59766;947.423;;;;
2020/11/18 09:25:06;;;;;;;0.8;0.8;;;;;;;9.79;63.01953;947.3862;;;;
2020/11/18 09:27:33;;;;;;;1;0.7;;;;;;;9.92;63.16309;947.3424;;;;
2020/11/18 09:29:58;;;;;;;1.5;0.7;;;;;;;9.93;64.04297;947.36;;;;
2020/11/18 09:32:23;;;;;;;1.8;0.6;;;;;;;10.03;64.26367;947.3631;;;;
2020/11/18 09:34:53;;;;;;;0.7;0.5;;;;;;;10.2;63.6377;947.3396;;;;
2020/11/18 09:37:18;;;;;;;1.2;0.7;;;;;;;10.38;63.26465;947.3381;;;;
2020/11/18 09:39:45;;;;;;;1.3;0.7;;;;;;;10.51;61.61621;947.3417;;;;
2020/11/18 09:42:11;;;;;;;0.5;0.5;;;;;;;10.66;62.02637;947.3672;;;;
2020/11/18 09:44:39;;;;;;;2.1;0.7;;;;;;;10.88;61.12109;947.3126;;;;
2020/11/18 09:47:06;;;;;;;0.5;0.5;;;;;;;11.06;60.00293;947.3297;;;;
2020/11/18 09:49:36;;;;;;;1.2;0.4;;;;;;;11.21;57.1416;947.3585;;;;
2020/11/18 09:52:03;;;;;;;0.7;0.4;;;;;;;11.36;56.45215;947.3013;;;;
2020/11/18 09:54:28;;;;;;;0.3;0.3;;;;;;;11.54;56.85352;947.2488;;;;
2020/11/18 09:56:56;;;;;;;2.4;0.3;;;;;;;11.69;55.93359;947.295;;;;
2020/11/18 09:59:21;;;;;;;3.1;0.6;;;;;;;11.83;55.29004;947.1603;;;;
2020/11/18 10:01:49;;;;;;;2.4;0.3;;;;;;;11.91;54.24512;947.2017;;;;
2020/11/18 10:04:15;;;;;;;0.3;0.2;;;;;;;12.06;54.05762;947.1688;;;;
2020/11/18 10:06:40;;;;;;;1;0.5;;;;;;;12.22;55.0166;947.1526;;;;
2020/11/18 10:09:05;;;;;;;1.7;0.4;;;;;;;12.25;54.5752;947.1461;;;;
2020/11/18 10:11:34;;;;;;;0.2;0.2;;;;;;;12.38;54.67188;947.1067;;;;
2020/11/18 10:14:03;;;;;;;0.2;0.2;;;;;;;12.47;55.13086;947.0535;;;;
2020/11/18 10:16:28;;;;;;;0.2;0.2;;;;;;;12.52;54.08105;946.9918;;;;
2020/11/18 10:18:57;;;;;;;0.2;0.2;;;;;;;12.64;52.77734;946.9038;;;;
2020/11/18 10:21:23;;;;;;;0.6;0.3;;;;;;;12.68;54.37695;946.803;;;;
2020/11/18 10:23:48;;;;;;;0.4;0.3;;;;;;;12.75;53.84473;946.8063;;;;
2020/11/18 10:26:16;;;;;;;0.3;0.2;;;;;;;12.89;52.34668;946.7822;;;;
2020/11/18 10:28:41;;;;;;;0.2;0.1;;;;;;;13.01;52.95996;946.7762;;;;
2020/11/18 10:31:11;;;;;;;1.3;0.5;;;;;;;13.05;53.1709;946.7305;;;;
2020/11/18 10:33:36;;;;;;;0.3;0.3;;;;;;;13.17;53.44922;946.748;;;;
2020/11/18 10:36:03;;;;;;;0.1;0.1;;;;;;;13.24;52.40137;946.6928;;;;
2020/11/18 10:38:28;;;;;;;0.6;0.2;;;;;;;13.35;51.75977;946.6589;;;;
2020/11/18 10:40:53;;;;;;;1.2;0.3;;;;;;;13.45;52.09277;946.6155;;;;
2020/11/18 10:43:20;;;;;;;0.6;0.2;;;;;;;13.65;52.28906;946.5366;;;;
2020/11/18 10:45:45;;;;;;;0.2;0.1;;;;;;;13.71;51.52637;946.5251;;;;
2020/11/18 10:48:12;;;;;;;0.7;0.3;;;;;;;13.81;52.75781;946.5334;;;;
2020/11/18 10:50:37;;;;;;;0.4;0.3;;;;;;;13.93;52.0918;946.4227;;;;
2020/11/18 10:53:07;;;;;;;0.1;0;;;;;;;14.04;50.51855;946.3569;;;;
2020/11/18 10:55:39;;;;;;;0.3;0.1;;;;;;;14.02;49.84766;946.2863;;;;
2020/11/18 10:58:06;;;;;;;1.3;1.1;;;;;;;14.09;50.61621;946.2355;;;;
2020/11/18 11:00:33;;;;;;;6;2.5;;;;;;;14.24;49.75781;946.1386;;;;
2020/11/18 11:02:56;;;;;;;1.8;1.6;;;;;;;14.36;49.67871;946.1923;;;;
2020/11/18 11:05:26;;;;;;;0.3;0.3;;;;;;;14.4;49.90332;946.135;;;;
2020/11/18 11:07:51;;;;;;;0.3;0.2;;;;;;;14.56;49.7832;946.0958;;;;
2020/11/18 11:10:18;;;;;;;1.1;0.4;;;;;;;14.68;50.90332;946.0536;;;;
2020/11/18 11:12:43;;;;;;;0.4;0.2;;;;;;;14.74;47.94629;946.0187;;;;
2020/11/18 11:15:12;;;;;;;1.7;0.4;;;;;;;14.9;48.71484;946.0239;;;;
2020/11/18 11:17:39;;;;;;;2.6;0.6;;;;;;;15;48.25195;946.0259;;;;
2020/11/18 11:20:04;;;;;;;1.6;0.5;;;;;;;15.13;47.10059;945.9827;;;;
2020/11/18 11:22:33;;;;;;;0.4;0.4;;;;;;;15.29;47.03711;945.9444;;;;
2020/11/18 11:25:03;;;;;;;0.2;0.1;;;;;;;15.39;47.28027;945.9455;;;;
2020/11/18 11:27:28;;;;;;;1.1;0.2;;;;;;;15.57;47.63477;945.9464;;;;
2020/11/18 11:29:54;;;;;;;0.3;0.3;;;;;;;16.08;45.2959;945.8359;;;;
2020/11/18 11:32:19;;;;;;;0.5;0.3;;;;;;;17.78;42.23242;945.8283;;;;
2020/11/18 11:34:47;;;;;;;0.4;0.3;;;;;;;19.96;37.58887;945.7991;;;;
2020/11/18 11:37:12;;;;;;;0.7;0.2;;;;;;;21.1;34.17676;945.802;;;;
2020/11/18 11:39:43;;;;;;;0.3;0.2;;;;;;;22.89;31.91992;945.7576;;;;
2020/11/18 11:42:08;;;;;;;1.1;0.2;;;;;;;24.95;28.24512;945.728;;;;
2020/11/18 11:44:36;;;;;;;0.1;0.1;;;;;;;26.77;25.93164;945.6983;;;;
2020/11/18 11:47:03;;;;;;;1.1;0.3;;;;;;;28.71;23.48535;945.641;;;;
2020/11/18 11:49:28;;;;;;;1.9;0.4;;;;;;;29.33;22.30273;945.5974;;;;
2020/11/18 11:51:53;;;;;;;0.3;0.3;;;;;;;30.26;21.58398;945.6298;;;;
2020/11/18 11:54:18;;;;;;;0.6;0.3;;;;;;;30.89;21.35156;945.6216;;;;
2020/11/18 11:56:45;;;;;;;0.2;0.2;;;;;;;31.62;19.57813;945.6334;;;;
2020/11/18 11:59:12;;;;;;;0.5;0.2;;;;;;;31.86;19.70703;945.6215;;;;
2020/11/18 12:01:34;;;;;;;0.3;0.3;;;;;;;32.68;19.32324;945.5859;;;;
2020/11/18 12:04:00;;;;;;;4.8;0.3;;;;;;;33.37;18.21094;945.5421;;;;
2020/11/18 12:06:25;;;;;;;0.2;0.2;;;;;;;33.34;18.49805;945.5209;;;;
2020/11/18 12:08:51;;;;;;;0.6;0.3;;;;;;;33.66;17.16406;945.5117;;;;
2020/11/18 12:11:19;;;;;;;0.1;0.1;;;;;;;34.31;16.95898;945.4736;;;;
2020/11/18 12:13:47;;;;;;;0.6;0.3;;;;;;;35.11;16.97754;945.465;;;;
2020/11/18 12:16:13;;;;;;;0.5;0.3;;;;;;;34.41;18.30078;945.3987;;;;
2020/11/18 12:18:39;;;;;;;0.9;0.5;;;;;;;34.39;17.87793;945.4183;;;;
2020/11/18 12:21:06;;;;;;;0.8;0.4;;;;;;;34.35;17.88867;945.4363;;;;
2020/11/18 12:23:32;;;;;;;1.1;0.2;;;;;;;33.62;17.69141;945.3555;;;;
2020/11/18 12:26:00;;;;;;;1.1;0.2;;;;;;;32.55;18.5498;945.3625;;;;
2020/11/18 12:28:28;;;;;;;0.1;0.1;;;;;;;32.04;19.71582;945.3967;;;;
2020/11/18 12:31:02;;;;;;;0.2;0.2;;;;;;;30.61;20.99121;945.4207;;;;
2020/11/18 12:33:22;;;;;;;0.5;0.3;;;;;;;30.15;21.93652;945.4384;;;;
2020/11/18 12:35:48;;;;;;;0.3;0.3;;;;;;;30.36;21.5293;945.452;;;;
2020/11/18 12:38:13;;;;;;;0.6;0.2;;;;;;;31.55;20.3291;945.4305;;;;
2020/11/18 12:40:44;;;;;;;0.3;0.3;;;;;;;32.12;19.29883;945.4314;;;;
2020/11/18 12:43:09;;;;;;;0.6;0.3;;;;;;;31.11;20.46484;945.4592;;;;
2020/11/18 12:45:34;;;;;;;0.2;0.1;;;;;;;30.4;21.44727;945.3922;;;;
2020/11/18 12:48:01;;;;;;;0.3;0.1;;;;;;;30.03;21.7998;945.4111;;;;
2020/11/18 12:50:26;;;;;;;0.2;0.2;;;;;;;29.27;22.69238;945.3668;;;;
2020/11/18 12:52:52;;;;;;;0.5;0.2;;;;;;;28.88;23.42285;945.3676;;;;
2020/11/18 12:55:18;;;;;;;0;0;;;;;;;29.31;22.8252;945.3394;;;;
2020/11/18 12:57:43;;;;;;;0.4;0.2;;;;;;;29.12;23.18457;945.2999;;;;
2020/11/18 13:00:08;;;;;;;0.3;0.2;;;;;;;28.38;24.33594;945.3098;;;;
2020/11/18 13:02:35;;;;;;;0.8;0.4;;;;;;;27.97;24.66992;945.3663;;;;
2020/11/18 13:05:00;;;;;;;0.6;0.2;;;;;;;27.39;25.14844;945.3402;;;;
2020/11/18 13:07:25;;;;;;;0.3;0.2;;;;;;;27.03;25.76855;945.3431;;;;
2020/11/18 13:09:50;;;;;;;0.1;0.1;;;;;;;27.43;25.15039;945.3303;;;;
2020/11/18 13:12:15;;;;;;;0.3;0.2;;;;;;;28.25;23.90137;945.2619;;;;
2020/11/18 13:14:40;;;;;;;0.5;0.2;;;;;;;28.55;23.67871;945.26;;;;
2020/11/18 13:17:05;;;;;;;0.2;0.2;;;;;;;28.99;23.16699;945.2264;;;;
2020/11/18 13:19:32;;;;;;;0.7;0.3;;;;;;;29.22;22.57129;945.1975;;;;
2020/11/18 13:21:57;;;;;;;1;0.3;;;;;;;29.55;22.33691;945.2806;;;;
2020/11/18 13:24:22;;;;;;;2.9;0.6;;;;;;;30.33;21.45605;945.2095;;;;
2020/11/18 13:26:47;;;;;;;0.2;0.1;;;;;;;30.28;21.47754;945.259;;;;
2020/11/18 13:29:13;;;;;;;0.4;0.3;;;;;;;30.69;21.1748;945.2108;;;;
2020/11/18 13:31:38;;;;;;;0.1;0.1;;;;;;;29.75;22.07227;945.1905;;;;
2020/11/18 13:34:03;;;;;;;0.3;0.2;;;;;;;29.95;21.7959;945.2109;;;;
2020/11/18 13:36:29;;;;;;;0.4;0.3;;;;;;;30.17;21.66406;945.2253;;;;
2020/11/18 13:38:54;;;;;;;0.2;0.2;;;;;;;30.46;21.27148;945.2358;;;;
2020/11/18 13:41:22;;;;;;;0.2;0.2;;;;;;;31.05;20.66504;945.2111;;;;
2020/11/18 13:43:48;;;;;;;0.3;0.2;;;;;;;31.46;20.22852;945.2473;;;;
2020/11/18 13:46:14;;;;;;;0.8;0.3;;;;;;;30.97;20.8291;945.2137;;;;
2020/11/18 13:48:39;;;;;;;1.3;0.4;;;;;;;30.28;21.22754;945.2318;;;;
2020/11/18 13:51:04;;;;;;;0.4;0.2;;;;;;;30.54;20.83301;945.238;;;;
2020/11/18 13:53:29;;;;;;;1.8;0.6;;;;;;;30.46;21.12793;945.1914;;;;
2020/11/18 13:55:55;;;;;;;0.3;0.2;;;;;;;30.62;20.62207;945.255;;;;
2020/11/18 13:58:20;;;;;;;0.1;0.1;;;;;;;30.84;20.87012;945.2603;;;;
2020/11/18 14:00:46;;;;;;;0.4;0.2;;;;;;;31.22;20.31445;945.2719;;;;
2020/11/18 14:03:14;;;;;;;0.2;0.2;;;;;;;31.32;20.34277;945.3025;;;;
2020/11/18 14:05:42;;;;;;;0.5;0.1;;;;;;;31.68;20.20313;945.2988;;;;
2020/11/18 14:08:07;;;;;;;0.2;0.1;;;;;;;31.9;19.69824;945.2578;;;;
2020/11/18 14:10:41;;;;;;;0.1;0.1;;;;;;;31.68;19.77148;945.2876;;;;
2020/11/18 14:13:07;;;;;;;0.5;0.3;;;;;;;29.89;21.68652;945.2559;;;;
2020/11/18 14:15:32;;;;;;;0.3;0.2;;;;;;;29.17;22.90234;945.2183;;;;
2020/11/18 14:18:07;;;;;;;1.1;0.9;;;;;;;28.69;23.49609;945.2173;;;;
2020/11/18 14:21:01;;;;;;;0.6;0.3;;;;;;;29.29;23.30078;945.1852;;;;
2020/11/18 14:22:55;;;;;;;0.6;0.6;;;;;;;29.75;22.76465;945.2156;;;;
2020/11/18 14:26:06;;;;;;;1.1;0.4;;;;;;;30.01;22.57422;945.2472;;;;
2020/11/18 14:31:29;;;;;;;1.6;0.3;;;;;;;30.48;22.81348;945.1948;;;;
2020/11/18 14:42:27;;;;;;;10.1;0.5;;;;;;;23.72;32.15625;945.1325;;;;
2020/11/18 14:44:46;;;;;;;1.3;0.4;;;;;;;22.67;33.61719;945.1237;;;;
2020/11/18 14:47:11;;;;;;;0.5;0.1;;;;;;;21.73;35.12793;945.1094;;;;
2020/11/18 14:49:41;;;;;;;1.3;0.8;;;;;;;20.64;37.31934;945.0256;;;;
2020/11/18 14:52:07;;;;;;;1.5;0.9;;;;;;;20.02;39.13477;945.0528;;;;
2020/11/18 14:54:32;;;;;;;2.4;0.7;;;;;;;19.22;41.69531;945.1268;;;;
2020/11/18 14:56:57;;;;;;;1.4;0.8;;;;;;;18.54;41.81738;945.1639;;;;
2020/11/18 14:59:24;;;;;;;2.1;1;;;;;;;17.97;43.71387;945.1262;;;;
2020/11/18 15:01:50;;;;;;;1.1;0.8;;;;;;;17.33;45.20508;945.0545;;;;
2020/11/18 15:04:16;;;;;;;3.3;1.2;;;;;;;16.96;45.73438;945.0992;;;;
2020/11/18 15:06:41;;;;;;;1.5;0.8;;;;;;;16.61;46.42773;945.0867;;;;
2020/11/18 15:09:07;;;;;;;1.6;0.9;;;;;;;16.21;47.47266;945.1399;;;;
2020/11/18 15:11:32;;;;;;;2;1.3;;;;;;;15.93;48.40234;945.2025;;;;
2020/11/18 15:13:59;;;;;;;9.3;1.2;;;;;;;15.49;49.80859;945.2181;;;;
2020/11/18 15:16:24;;;;;;;1.7;1;;;;;;;14.9;50.30664;945.2267;;;;
2020/11/18 15:18:50;;;;;;;3.7;1.1;;;;;;;14.6;51.16016;945.2328;;;;
2020/11/18 15:21:15;;;;;;;1.3;0.8;;;;;;;14.44;51.99316;945.2921;;;;
2020/11/18 15:23:42;;;;;;;1.6;0.8;;;;;;;14.17;52.79004;945.3318;;;;
2020/11/18 15:26:08;;;;;;;1.6;1;;;;;;;14.07;53.03125;945.3464;;;;
2020/11/18 15:28:34;;;;;;;2.1;0.8;;;;;;;13.92;53.35742;945.3258;;;;
2020/11/18 15:30:59;;;;;;;1.3;0.9;;;;;;;13.85;53.82129;945.4133;;;;
2020/11/18 15:33:26;;;;;;;8.5;2;;;;;;;13.35;55.06934;945.4238;;;;
2020/11/18 15:35:52;;;;;;;4.6;1.8;;;;;;;13.11;56.11816;945.4558;;;;
2020/11/18 15:38:17;;;;;;;2.6;1.5;;;;;;;12.95;56.52344;945.4225;;;;
2020/11/18 15:40:43;;;;;;;2;1.2;;;;;;;12.77;57.14258;945.4328;;;;
2020/11/18 15:43:09;;;;;;;1.8;1;;;;;;;12.68;57.56543;945.4724;;;;
2020/11/18 15:45:34;;;;;;;1.5;1.1;;;;;;;12.58;58.22852;945.4612;;;;
2020/11/18 15:48:01;;;;;;;1.6;1.1;;;;;;;12.57;58.50391;945.4307;;;;
2020/11/18 15:50:25;;;;;;;3.1;1.8;;;;;;;12.58;58.54004;945.4469;;;;